sensor_id;sensor_type;location;lat;lon;timestamp;P1;durP1;ratioP1;P2;durP2;ratioP2
11777;SDS011;5946;51.770;8.548;2023-06-22T00:01:58;25.77;;;23.37;;
11777;SDS011;5946;51.770;8.548;2023-06-22T00:04:24;26.73;;;24.30;;
11777;SDS011;5946;51.770;8.548;2023-06-22T00:06:50;26.93;;;24.33;;
11777;SDS011;5946;51.770;8.548;2023-06-22T00:09:17;27.80;;;25.20;;
11777;SDS011;5946;51.770;8.548;2023-06-22T00:11:42;30.70;;;27.70;;
11777;SDS011;5946;51.770;8.548;2023-06-22T00:14:08;28.13;;;25.47;;
11777;SDS011;5946;51.770;8.548;2023-06-22T00:16:34;30.47;;;27.47;;
11777;SDS011;5946;51.770;8.548;2023-06-22T00:19:00;29.10;;;26.30;;
11777;SDS011;5946;51.770;8.548;2023-06-22T00:21:27;30.57;;;27.73;;
11777;SDS011;5946;51.770;8.548;2023-06-22T00:23:53;30.43;;;27.63;;
11777;SDS011;5946;51.770;8.548;2023-06-22T00:26:20;32.23;;;29.13;;
11777;SDS011;5946;51.770;8.548;2023-06-22T00:28:46;32.07;;;29.00;;
11777;SDS011;5946;51.770;8.548;2023-06-22T00:31:12;33.53;;;30.33;;
11777;SDS011;5946;51.770;8.548;2023-06-22T00:33:38;32.40;;;29.30;;
11777;SDS011;5946;51.770;8.548;2023-06-22T00:36:05;30.03;;;27.03;;
11777;SDS011;5946;51.770;8.548;2023-06-22T00:38:32;29.03;;;26.07;;
11777;SDS011;5946;51.770;8.548;2023-06-22T00:40:58;29.20;;;26.40;;
11777;SDS011;5946;51.770;8.548;2023-06-22T00:43:24;29.07;;;26.07;;
11777;SDS011;5946;51.770;8.548;2023-06-22T00:45:50;28.57;;;25.97;;
11777;SDS011;5946;51.770;8.548;2023-06-22T00:48:17;30.77;;;27.87;;
11777;SDS011;5946;51.770;8.548;2023-06-22T00:50:43;31.13;;;28.20;;
11777;SDS011;5946;51.770;8.548;2023-06-22T00:53:09;31.30;;;28.30;;
11777;SDS011;5946;51.770;8.548;2023-06-22T00:55:42;31.10;;;28.10;;
11777;SDS011;5946;51.770;8.548;2023-06-22T00:58:10;31.80;;;28.80;;
11777;SDS011;5946;51.770;8.548;2023-06-22T01:00:37;35.23;;;31.73;;
11777;SDS011;5946;51.770;8.548;2023-06-22T01:03:03;32.40;;;29.17;;
11777;SDS011;5946;51.770;8.548;2023-06-22T01:05:33;32.50;;;29.37;;
11777;SDS011;5946;51.770;8.548;2023-06-22T01:08:08;33.20;;;30.00;;
11777;SDS011;5946;51.770;8.548;2023-06-22T01:18:26;33.07;;;29.60;;
11777;SDS011;5946;51.770;8.548;2023-06-22T01:20:54;32.97;;;29.70;;
11777;SDS011;5946;51.770;8.548;2023-06-22T01:23:46;32.30;;;29.00;;
11777;SDS011;5946;51.770;8.548;2023-06-22T01:28:43;32.73;;;29.47;;
11777;SDS011;5946;51.770;8.548;2023-06-22T01:31:11;33.90;;;30.50;;
11777;SDS011;5946;51.770;8.548;2023-06-22T01:33:39;34.00;;;30.47;;
11777;SDS011;5946;51.770;8.548;2023-06-22T01:36:06;33.40;;;30.10;;
11777;SDS011;5946;51.770;8.548;2023-06-22T01:38:32;31.13;;;28.10;;
11777;SDS011;5946;51.770;8.548;2023-06-22T01:40:59;33.43;;;30.23;;
11777;SDS011;5946;51.770;8.548;2023-06-22T01:43:26;31.70;;;28.47;;
11777;SDS011;5946;51.770;8.548;2023-06-22T01:45:53;30.27;;;27.17;;
11777;SDS011;5946;51.770;8.548;2023-06-22T01:48:19;31.17;;;28.27;;
11777;SDS011;5946;51.770;8.548;2023-06-22T01:50:45;31.03;;;27.80;;
11777;SDS011;5946;51.770;8.548;2023-06-22T01:53:12;31.87;;;28.80;;
11777;SDS011;5946;51.770;8.548;2023-06-22T01:55:38;32.67;;;29.47;;
11777;SDS011;5946;51.770;8.548;2023-06-22T01:58:04;31.67;;;28.57;;
11777;SDS011;5946;51.770;8.548;2023-06-22T02:00:34;30.97;;;27.90;;
11777;SDS011;5946;51.770;8.548;2023-06-22T02:03:08;31.27;;;28.17;;
11777;SDS011;5946;51.770;8.548;2023-06-22T02:05:36;31.23;;;28.30;;
11777;SDS011;5946;51.770;8.548;2023-06-22T02:08:11;32.30;;;28.97;;
11777;SDS011;5946;51.770;8.548;2023-06-22T02:10:41;32.13;;;28.10;;
11777;SDS011;5946;51.770;8.548;2023-06-22T02:13:08;31.23;;;28.00;;
11777;SDS011;5946;51.770;8.548;2023-06-22T02:15:34;33.33;;;29.73;;
11777;SDS011;5946;51.770;8.548;2023-06-22T02:18:01;35.83;;;31.50;;
11777;SDS011;5946;51.770;8.548;2023-06-22T02:20:27;31.90;;;28.57;;
11777;SDS011;5946;51.770;8.548;2023-06-22T02:22:53;32.57;;;29.23;;
11777;SDS011;5946;51.770;8.548;2023-06-22T02:25:19;31.67;;;28.67;;
11777;SDS011;5946;51.770;8.548;2023-06-22T02:27:45;32.93;;;29.53;;
11777;SDS011;5946;51.770;8.548;2023-06-22T02:30:11;30.77;;;27.57;;
11777;SDS011;5946;51.770;8.548;2023-06-22T02:32:37;31.03;;;27.93;;
11777;SDS011;5946;51.770;8.548;2023-06-22T02:35:06;33.03;;;29.70;;
11777;SDS011;5946;51.770;8.548;2023-06-22T02:37:33;31.07;;;27.87;;
11777;SDS011;5946;51.770;8.548;2023-06-22T02:40:01;29.50;;;26.70;;
11777;SDS011;5946;51.770;8.548;2023-06-22T02:42:29;30.70;;;27.60;;
11777;SDS011;5946;51.770;8.548;2023-06-22T02:44:55;29.30;;;26.43;;
11777;SDS011;5946;51.770;8.548;2023-06-22T02:47:21;29.20;;;26.37;;
11777;SDS011;5946;51.770;8.548;2023-06-22T02:49:47;27.87;;;25.13;;
11777;SDS011;5946;51.770;8.548;2023-06-22T02:52:13;28.50;;;25.80;;
11777;SDS011;5946;51.770;8.548;2023-06-22T02:54:39;27.80;;;24.70;;
11777;SDS011;5946;51.770;8.548;2023-06-22T02:57:05;28.60;;;25.57;;
11777;SDS011;5946;51.770;8.548;2023-06-22T02:59:31;27.07;;;24.47;;
11777;SDS011;5946;51.770;8.548;2023-06-22T03:01:56;26.63;;;23.97;;
11777;SDS011;5946;51.770;8.548;2023-06-22T03:04:22;27.17;;;24.43;;
11777;SDS011;5946;51.770;8.548;2023-06-22T03:06:48;26.23;;;22.73;;
11777;SDS011;5946;51.770;8.548;2023-06-22T03:09:16;27.23;;;23.90;;
11777;SDS011;5946;51.770;8.548;2023-06-22T03:11:42;29.30;;;24.20;;
11777;SDS011;5946;51.770;8.548;2023-06-22T03:14:08;28.97;;;24.10;;
11777;SDS011;5946;51.770;8.548;2023-06-22T03:16:34;30.37;;;26.30;;
11777;SDS011;5946;51.770;8.548;2023-06-22T03:19:00;27.67;;;24.57;;
11777;SDS011;5946;51.770;8.548;2023-06-22T03:21:29;28.10;;;25.30;;
11777;SDS011;5946;51.770;8.548;2023-06-22T03:23:55;29.03;;;24.23;;
11777;SDS011;5946;51.770;8.548;2023-06-22T03:26:21;26.90;;;23.87;;
11777;SDS011;5946;51.770;8.548;2023-06-22T03:28:48;27.83;;;24.90;;
11777;SDS011;5946;51.770;8.548;2023-06-22T03:31:14;32.13;;;25.33;;
11777;SDS011;5946;51.770;8.548;2023-06-22T03:33:40;31.10;;;25.23;;
11777;SDS011;5946;51.770;8.548;2023-06-22T03:36:06;28.43;;;24.80;;
11777;SDS011;5946;51.770;8.548;2023-06-22T03:38:33;25.87;;;23.37;;
11777;SDS011;5946;51.770;8.548;2023-06-22T03:40:59;25.67;;;22.67;;
11777;SDS011;5946;51.770;8.548;2023-06-22T03:43:25;26.33;;;23.60;;
11777;SDS011;5946;51.770;8.548;2023-06-22T03:45:51;26.57;;;23.37;;
11777;SDS011;5946;51.770;8.548;2023-06-22T03:48:17;31.80;;;23.93;;
11777;SDS011;5946;51.770;8.548;2023-06-22T03:50:43;26.93;;;24.07;;
11777;SDS011;5946;51.770;8.548;2023-06-22T03:53:09;27.83;;;24.93;;
11777;SDS011;5946;51.770;8.548;2023-06-22T03:55:35;26.97;;;24.27;;
11777;SDS011;5946;51.770;8.548;2023-06-22T03:58:01;31.90;;;24.90;;
11777;SDS011;5946;51.770;8.548;2023-06-22T04:00:30;28.17;;;23.70;;
11777;SDS011;5946;51.770;8.548;2023-06-22T04:02:56;26.27;;;23.53;;
11777;SDS011;5946;51.770;8.548;2023-06-22T04:05:22;25.10;;;22.70;;
11777;SDS011;5946;51.770;8.548;2023-06-22T04:07:49;27.00;;;24.43;;
11777;SDS011;5946;51.770;8.548;2023-06-22T04:10:15;26.20;;;23.40;;
11777;SDS011;5946;51.770;8.548;2023-06-22T04:12:41;24.20;;;21.60;;
11777;SDS011;5946;51.770;8.548;2023-06-22T04:15:07;24.53;;;22.07;;
11777;SDS011;5946;51.770;8.548;2023-06-22T04:17:33;25.73;;;22.97;;
11777;SDS011;5946;51.770;8.548;2023-06-22T04:19:59;24.13;;;21.70;;
11777;SDS011;5946;51.770;8.548;2023-06-22T04:22:25;24.23;;;21.80;;
11777;SDS011;5946;51.770;8.548;2023-06-22T04:24:51;24.97;;;22.37;;
11777;SDS011;5946;51.770;8.548;2023-06-22T04:27:17;24.13;;;21.70;;
11777;SDS011;5946;51.770;8.548;2023-06-22T04:29:44;24.73;;;22.20;;
11777;SDS011;5946;51.770;8.548;2023-06-22T04:32:13;24.50;;;21.90;;
11777;SDS011;5946;51.770;8.548;2023-06-22T04:34:40;24.47;;;21.20;;
11777;SDS011;5946;51.770;8.548;2023-06-22T04:37:05;23.33;;;20.93;;
11777;SDS011;5946;51.770;8.548;2023-06-22T04:39:31;23.23;;;20.73;;
11777;SDS011;5946;51.770;8.548;2023-06-22T04:41:57;22.53;;;20.27;;
11777;SDS011;5946;51.770;8.548;2023-06-22T04:44:25;21.87;;;19.67;;
11777;SDS011;5946;51.770;8.548;2023-06-22T04:46:52;23.40;;;21.00;;
11777;SDS011;5946;51.770;8.548;2023-06-22T04:49:33;22.03;;;19.73;;
11777;SDS011;5946;51.770;8.548;2023-06-22T04:52:03;21.47;;;19.43;;
11777;SDS011;5946;51.770;8.548;2023-06-22T04:54:30;20.47;;;18.57;;
11777;SDS011;5946;51.770;8.548;2023-06-22T04:56:59;20.10;;;18.20;;
11777;SDS011;5946;51.770;8.548;2023-06-22T04:59:26;25.53;;;20.47;;
11777;SDS011;5946;51.770;8.548;2023-06-22T05:01:55;21.27;;;19.07;;
11777;SDS011;5946;51.770;8.548;2023-06-22T05:04:22;21.60;;;19.33;;
11777;SDS011;5946;51.770;8.548;2023-06-22T05:06:48;22.87;;;18.93;;
11777;SDS011;5946;51.770;8.548;2023-06-22T05:09:15;21.30;;;18.20;;
11777;SDS011;5946;51.770;8.548;2023-06-22T05:11:41;18.50;;;16.53;;
11777;SDS011;5946;51.770;8.548;2023-06-22T05:14:07;24.37;;;19.33;;
11777;SDS011;5946;51.770;8.548;2023-06-22T05:16:33;20.53;;;17.70;;
11777;SDS011;5946;51.770;8.548;2023-06-22T05:18:59;20.53;;;18.57;;
11777;SDS011;5946;51.770;8.548;2023-06-22T05:21:28;17.80;;;16.10;;
11777;SDS011;5946;51.770;8.548;2023-06-22T05:23:54;19.77;;;17.30;;
11777;SDS011;5946;51.770;8.548;2023-06-22T05:26:21;15.88;;;14.18;;
11777;SDS011;5946;51.770;8.548;2023-06-22T05:28:47;16.05;;;14.65;;
11777;SDS011;5946;51.770;8.548;2023-06-22T05:31:14;20.45;;;16.85;;
11777;SDS011;5946;51.770;8.548;2023-06-22T05:33:43;19.90;;;17.88;;
11777;SDS011;5946;51.770;8.548;2023-06-22T05:36:09;19.23;;;17.38;;
11777;SDS011;5946;51.770;8.548;2023-06-22T05:38:36;18.95;;;17.13;;
11777;SDS011;5946;51.770;8.548;2023-06-22T05:41:02;20.48;;;18.48;;
11777;SDS011;5946;51.770;8.548;2023-06-22T05:43:28;17.35;;;15.68;;
11777;SDS011;5946;51.770;8.548;2023-06-22T05:45:54;16.80;;;15.23;;
11777;SDS011;5946;51.770;8.548;2023-06-22T05:48:20;17.40;;;15.35;;
11777;SDS011;5946;51.770;8.548;2023-06-22T05:50:46;17.08;;;15.35;;
11777;SDS011;5946;51.770;8.548;2023-06-22T05:53:12;17.05;;;15.32;;
11777;SDS011;5946;51.770;8.548;2023-06-22T05:55:38;17.35;;;15.70;;
11777;SDS011;5946;51.770;8.548;2023-06-22T05:58:05;17.77;;;15.95;;
11777;SDS011;5946;51.770;8.548;2023-06-22T06:00:31;16.75;;;15.05;;
11777;SDS011;5946;51.770;8.548;2023-06-22T06:02:57;16.52;;;14.82;;
11777;SDS011;5946;51.770;8.548;2023-06-22T06:05:28;16.33;;;14.73;;
11777;SDS011;5946;51.770;8.548;2023-06-22T06:07:54;15.95;;;14.00;;
11777;SDS011;5946;51.770;8.548;2023-06-22T06:10:20;14.35;;;12.88;;
11777;SDS011;5946;51.770;8.548;2023-06-22T06:12:45;15.88;;;14.52;;
11777;SDS011;5946;51.770;8.548;2023-06-22T06:15:11;15.25;;;13.85;;
11777;SDS011;5946;51.770;8.548;2023-06-22T06:17:50;14.77;;;13.38;;
11777;SDS011;5946;51.770;8.548;2023-06-22T06:20:20;15.15;;;13.75;;
11777;SDS011;5946;51.770;8.548;2023-06-22T06:22:46;15.38;;;13.73;;
11777;SDS011;5946;51.770;8.548;2023-06-22T06:25:12;17.05;;;13.13;;
11777;SDS011;5946;51.770;8.548;2023-06-22T06:27:44;17.88;;;15.93;;
11777;SDS011;5946;51.770;8.548;2023-06-22T06:30:10;14.98;;;13.68;;
11777;SDS011;5946;51.770;8.548;2023-06-22T06:32:37;18.48;;;16.70;;
11777;SDS011;5946;51.770;8.548;2023-06-22T06:35:04;18.75;;;16.42;;
11777;SDS011;5946;51.770;8.548;2023-06-22T06:37:30;20.02;;;16.08;;
11777;SDS011;5946;51.770;8.548;2023-06-22T06:39:57;19.27;;;17.25;;
11777;SDS011;5946;51.770;8.548;2023-06-22T06:42:23;18.80;;;16.83;;
11777;SDS011;5946;51.770;8.548;2023-06-22T06:44:49;19.33;;;17.50;;
11777;SDS011;5946;51.770;8.548;2023-06-22T06:47:15;21.38;;;17.45;;
11777;SDS011;5946;51.770;8.548;2023-06-22T06:49:42;19.58;;;17.48;;
11777;SDS011;5946;51.770;8.548;2023-06-22T06:52:08;18.35;;;16.52;;
11777;SDS011;5946;51.770;8.548;2023-06-22T06:54:34;19.63;;;17.70;;
11777;SDS011;5946;51.770;8.548;2023-06-22T06:57:00;16.92;;;15.35;;
11777;SDS011;5946;51.770;8.548;2023-06-22T06:59:28;17.38;;;15.63;;
11777;SDS011;5946;51.770;8.548;2023-06-22T07:01:55;17.60;;;15.90;;
11777;SDS011;5946;51.770;8.548;2023-06-22T07:04:21;18.45;;;16.55;;
11777;SDS011;5946;51.770;8.548;2023-06-22T07:06:47;18.40;;;16.67;;
11777;SDS011;5946;51.770;8.548;2023-06-22T07:09:13;18.30;;;15.35;;
11777;SDS011;5946;51.770;8.548;2023-06-22T07:11:39;21.05;;;17.63;;
11777;SDS011;5946;51.770;8.548;2023-06-22T07:14:05;18.98;;;17.23;;
11777;SDS011;5946;51.770;8.548;2023-06-22T07:16:30;22.30;;;18.10;;
11777;SDS011;5946;51.770;8.548;2023-06-22T07:18:57;18.88;;;16.98;;
11777;SDS011;5946;51.770;8.548;2023-06-22T07:21:23;23.08;;;18.75;;
11777;SDS011;5946;51.770;8.548;2023-06-22T07:23:49;23.67;;;21.38;;
11777;SDS011;5946;51.770;8.548;2023-06-22T07:26:15;21.42;;;19.38;;
11777;SDS011;5946;51.770;8.548;2023-06-22T07:28:41;21.20;;;19.17;;
11777;SDS011;5946;51.770;8.548;2023-06-22T07:31:08;21.45;;;19.48;;
11777;SDS011;5946;51.770;8.548;2023-06-22T07:33:34;21.10;;;19.20;;
11777;SDS011;5946;51.770;8.548;2023-06-22T07:36:00;19.98;;;18.08;;
11777;SDS011;5946;51.770;8.548;2023-06-22T07:38:27;21.35;;;19.45;;
11777;SDS011;5946;51.770;8.548;2023-06-22T07:40:53;21.83;;;19.55;;
11777;SDS011;5946;51.770;8.548;2023-06-22T07:43:19;20.30;;;18.42;;
11777;SDS011;5946;51.770;8.548;2023-06-22T07:45:49;21.42;;;19.33;;
11777;SDS011;5946;51.770;8.548;2023-06-22T07:48:22;22.40;;;20.15;;
11777;SDS011;5946;51.770;8.548;2023-06-22T07:50:48;22.38;;;20.02;;
11777;SDS011;5946;51.770;8.548;2023-06-22T07:53:14;21.15;;;19.05;;
11777;SDS011;5946;51.770;8.548;2023-06-22T07:55:40;21.38;;;19.27;;
11777;SDS011;5946;51.770;8.548;2023-06-22T07:58:06;25.30;;;21.73;;
11777;SDS011;5946;51.770;8.548;2023-06-22T08:00:33;22.45;;;20.33;;
11777;SDS011;5946;51.770;8.548;2023-06-22T08:02:59;21.05;;;19.13;;
11777;SDS011;5946;51.770;8.548;2023-06-22T08:05:28;21.17;;;19.17;;
11777;SDS011;5946;51.770;8.548;2023-06-22T08:07:55;22.25;;;19.75;;
11777;SDS011;5946;51.770;8.548;2023-06-22T08:10:21;21.80;;;19.63;;
11777;SDS011;5946;51.770;8.548;2023-06-22T08:12:47;22.38;;;19.98;;
11777;SDS011;5946;51.770;8.548;2023-06-22T08:15:13;22.90;;;20.80;;
11777;SDS011;5946;51.770;8.548;2023-06-22T08:20:42;22.23;;;20.13;;
11777;SDS011;5946;51.770;8.548;2023-06-22T08:23:08;22.48;;;20.48;;
11777;SDS011;5946;51.770;8.548;2023-06-22T08:25:34;19.83;;;17.83;;
11777;SDS011;5946;51.770;8.548;2023-06-22T08:28:04;19.45;;;17.55;;
11777;SDS011;5946;51.770;8.548;2023-06-22T08:30:30;18.63;;;16.95;;
11777;SDS011;5946;51.770;8.548;2023-06-22T08:32:56;17.70;;;16.08;;
11777;SDS011;5946;51.770;8.548;2023-06-22T08:35:22;17.20;;;15.57;;
11777;SDS011;5946;51.770;8.548;2023-06-22T08:37:48;14.30;;;13.02;;
11777;SDS011;5946;51.770;8.548;2023-06-22T08:40:17;15.27;;;13.73;;
11777;SDS011;5946;51.770;8.548;2023-06-22T08:42:44;14.43;;;13.02;;
11777;SDS011;5946;51.770;8.548;2023-06-22T08:45:11;13.40;;;12.30;;
11777;SDS011;5946;51.770;8.548;2023-06-22T08:47:37;13.80;;;12.50;;
11777;SDS011;5946;51.770;8.548;2023-06-22T08:50:04;13.98;;;12.68;;
11777;SDS011;5946;51.770;8.548;2023-06-22T08:52:30;11.75;;;10.60;;
11777;SDS011;5946;51.770;8.548;2023-06-22T08:54:56;11.57;;;10.48;;
11777;SDS011;5946;51.770;8.548;2023-06-22T08:57:23;10.95;;;10.02;;
11777;SDS011;5946;51.770;8.548;2023-06-22T08:59:49;10.63;;;9.68;;
11777;SDS011;5946;51.770;8.548;2023-06-22T09:02:17;10.85;;;9.77;;
11777;SDS011;5946;51.770;8.548;2023-06-22T09:04:44;10.45;;;9.50;;
11777;SDS011;5946;51.770;8.548;2023-06-22T09:07:10;9.20;;;8.40;;
11777;SDS011;5946;51.770;8.548;2023-06-22T09:09:36;12.52;;;9.65;;
11777;SDS011;5946;51.770;8.548;2023-06-22T09:12:02;9.40;;;8.52;;
11777;SDS011;5946;51.770;8.548;2023-06-22T09:14:28;9.75;;;8.10;;
11777;SDS011;5946;51.770;8.548;2023-06-22T09:16:54;10.10;;;8.25;;
11777;SDS011;5946;51.770;8.548;2023-06-22T09:19:20;8.40;;;7.70;;
11777;SDS011;5946;51.770;8.548;2023-06-22T09:21:46;9.13;;;8.32;;
11777;SDS011;5946;51.770;8.548;2023-06-22T09:24:12;8.48;;;7.80;;
11777;SDS011;5946;51.770;8.548;2023-06-22T09:26:38;8.65;;;7.95;;
11777;SDS011;5946;51.770;8.548;2023-06-22T09:29:04;7.97;;;7.28;;
11777;SDS011;5946;51.770;8.548;2023-06-22T09:31:31;10.77;;;7.57;;
11777;SDS011;5946;51.770;8.548;2023-06-22T09:33:57;8.43;;;7.65;;
11777;SDS011;5946;51.770;8.548;2023-06-22T09:36:23;8.20;;;7.50;;
11777;SDS011;5946;51.770;8.548;2023-06-22T09:38:49;8.30;;;7.60;;
11777;SDS011;5946;51.770;8.548;2023-06-22T09:41:23;9.15;;;8.35;;
11777;SDS011;5946;51.770;8.548;2023-06-22T09:43:49;8.20;;;7.50;;
11777;SDS011;5946;51.770;8.548;2023-06-22T09:46:15;9.30;;;8.43;;
11777;SDS011;5946;51.770;8.548;2023-06-22T09:48:41;8.55;;;7.85;;
11777;SDS011;5946;51.770;8.548;2023-06-22T09:51:07;8.68;;;7.97;;
11777;SDS011;5946;51.770;8.548;2023-06-22T09:53:33;8.82;;;8.02;;
11777;SDS011;5946;51.770;8.548;2023-06-22T09:56:03;8.20;;;7.50;;
11777;SDS011;5946;51.770;8.548;2023-06-22T09:58:30;8.70;;;8.00;;
11777;SDS011;5946;51.770;8.548;2023-06-22T10:00:56;9.13;;;8.25;;
11777;SDS011;5946;51.770;8.548;2023-06-22T10:03:21;8.20;;;7.50;;
11777;SDS011;5946;51.770;8.548;2023-06-22T10:05:48;8.90;;;8.00;;
11777;SDS011;5946;51.770;8.548;2023-06-22T10:08:14;8.55;;;7.75;;
11777;SDS011;5946;51.770;8.548;2023-06-22T10:10:40;8.95;;;8.15;;
11777;SDS011;5946;51.770;8.548;2023-06-22T10:13:09;8.27;;;7.57;;
11777;SDS011;5946;51.770;8.548;2023-06-22T10:15:36;8.52;;;7.72;;
11777;SDS011;5946;51.770;8.548;2023-06-22T10:18:02;7.97;;;7.38;;
11777;SDS011;5946;51.770;8.548;2023-06-22T10:20:28;7.60;;;6.90;;
11777;SDS011;5946;51.770;8.548;2023-06-22T10:22:54;8.23;;;7.53;;
11777;SDS011;5946;51.770;8.548;2023-06-22T10:25:20;8.13;;;7.43;;
11777;SDS011;5946;51.770;8.548;2023-06-22T10:27:46;8.02;;;7.32;;
11777;SDS011;5946;51.770;8.548;2023-06-22T10:30:12;7.78;;;7.13;;
11777;SDS011;5946;51.770;8.548;2023-06-22T10:32:38;8.70;;;7.90;;
11777;SDS011;5946;51.770;8.548;2023-06-22T10:35:05;8.05;;;7.35;;
11777;SDS011;5946;51.770;8.548;2023-06-22T10:37:31;7.93;;;7.28;;
11777;SDS011;5946;51.770;8.548;2023-06-22T10:39:57;7.30;;;6.70;;
11777;SDS011;5946;51.770;8.548;2023-06-22T10:42:23;7.25;;;6.63;;
11777;SDS011;5946;51.770;8.548;2023-06-22T10:44:49;7.85;;;7.20;;
11777;SDS011;5946;51.770;8.548;2023-06-22T10:47:15;7.30;;;6.80;;
11777;SDS011;5946;51.770;8.548;2023-06-22T10:49:41;7.10;;;6.40;;
11777;SDS011;5946;51.770;8.548;2023-06-22T10:52:07;7.50;;;6.90;;
11777;SDS011;5946;51.770;8.548;2023-06-22T10:54:37;7.75;;;7.05;;
11777;SDS011;5946;51.770;8.548;2023-06-22T10:57:03;8.10;;;7.18;;
11777;SDS011;5946;51.770;8.548;2023-06-22T10:59:29;7.55;;;6.85;;
11777;SDS011;5946;51.770;8.548;2023-06-22T11:01:55;7.47;;;6.88;;
11777;SDS011;5946;51.770;8.548;2023-06-22T11:04:22;7.03;;;6.43;;
11777;SDS011;5946;51.770;8.548;2023-06-22T11:06:49;7.30;;;6.60;;
11777;SDS011;5946;51.770;8.548;2023-06-22T11:09:15;7.45;;;6.75;;
11777;SDS011;5946;51.770;8.548;2023-06-22T11:11:48;7.78;;;7.07;;
11777;SDS011;5946;51.770;8.548;2023-06-22T11:14:15;7.10;;;6.50;;
11777;SDS011;5946;51.770;8.548;2023-06-22T11:16:41;7.95;;;7.25;;
11777;SDS011;5946;51.770;8.548;2023-06-22T11:19:07;7.93;;;7.20;;
11777;SDS011;5946;51.770;8.548;2023-06-22T11:21:33;7.80;;;6.95;;
11777;SDS011;5946;51.770;8.548;2023-06-22T11:23:59;7.72;;;7.03;;
11777;SDS011;5946;51.770;8.548;2023-06-22T11:26:25;8.95;;;7.43;;
11777;SDS011;5946;51.770;8.548;2023-06-22T11:28:55;8.30;;;7.60;;
11777;SDS011;5946;51.770;8.548;2023-06-22T11:31:21;8.55;;;7.72;;
11777;SDS011;5946;51.770;8.548;2023-06-22T11:33:47;7.40;;;6.78;;
11777;SDS011;5946;51.770;8.548;2023-06-22T11:36:13;8.15;;;7.35;;
11777;SDS011;5946;51.770;8.548;2023-06-22T11:38:39;8.23;;;7.53;;
11777;SDS011;5946;51.770;8.548;2023-06-22T11:41:05;7.63;;;6.95;;
11777;SDS011;5946;51.770;8.548;2023-06-22T11:43:32;8.18;;;7.45;;
11777;SDS011;5946;51.770;8.548;2023-06-22T11:45:58;8.30;;;7.60;;
11777;SDS011;5946;51.770;8.548;2023-06-22T11:48:24;8.02;;;7.32;;
11777;SDS011;5946;51.770;8.548;2023-06-22T11:50:50;8.50;;;7.70;;
11777;SDS011;5946;51.770;8.548;2023-06-22T11:53:16;9.27;;;7.82;;
11777;SDS011;5946;51.770;8.548;2023-06-22T11:55:42;8.45;;;7.75;;
11777;SDS011;5946;51.770;8.548;2023-06-22T11:58:09;8.98;;;7.85;;
11777;SDS011;5946;51.770;8.548;2023-06-22T12:00:35;9.15;;;8.10;;
11777;SDS011;5946;51.770;8.548;2023-06-22T12:03:01;9.13;;;8.27;;
11777;SDS011;5946;51.770;8.548;2023-06-22T12:05:27;8.20;;;7.45;;
11777;SDS011;5946;51.770;8.548;2023-06-22T12:07:53;7.93;;;7.32;;
11777;SDS011;5946;51.770;8.548;2023-06-22T12:10:20;8.80;;;8.00;;
11777;SDS011;5946;51.770;8.548;2023-06-22T12:12:46;9.45;;;8.40;;
11777;SDS011;5946;51.770;8.548;2023-06-22T12:15:12;8.98;;;8.23;;
11777;SDS011;5946;51.770;8.548;2023-06-22T12:17:38;8.60;;;7.90;;
11777;SDS011;5946;51.770;8.548;2023-06-22T12:20:04;8.60;;;7.90;;
11777;SDS011;5946;51.770;8.548;2023-06-22T12:22:31;9.30;;;8.45;;
11777;SDS011;5946;51.770;8.548;2023-06-22T12:24:57;10.07;;;9.13;;
11777;SDS011;5946;51.770;8.548;2023-06-22T12:27:24;10.68;;;8.77;;
11777;SDS011;5946;51.770;8.548;2023-06-22T12:29:50;10.27;;;9.48;;
11777;SDS011;5946;51.770;8.548;2023-06-22T12:32:16;14.18;;;10.10;;
11777;SDS011;5946;51.770;8.548;2023-06-22T12:34:43;11.68;;;10.50;;
11777;SDS011;5946;51.770;8.548;2023-06-22T12:37:09;12.00;;;10.90;;
11777;SDS011;5946;51.770;8.548;2023-06-22T12:39:35;12.95;;;11.85;;
11777;SDS011;5946;51.770;8.548;2023-06-22T12:42:01;14.07;;;12.63;;
11777;SDS011;5946;51.770;8.548;2023-06-22T12:44:27;14.63;;;12.98;;
11777;SDS011;5946;51.770;8.548;2023-06-22T12:46:53;16.00;;;14.27;;
11777;SDS011;5946;51.770;8.548;2023-06-22T12:49:19;17.02;;;15.10;;
11777;SDS011;5946;51.770;8.548;2023-06-22T12:51:45;22.45;;;17.10;;
11777;SDS011;5946;51.770;8.548;2023-06-22T12:54:11;22.27;;;18.15;;
11777;SDS011;5946;51.770;8.548;2023-06-22T12:56:37;27.80;;;20.35;;
11777;SDS011;5946;51.770;8.548;2023-06-22T12:59:04;23.20;;;20.63;;
11777;SDS011;5946;51.770;8.548;2023-06-22T13:01:31;22.38;;;20.00;;
11777;SDS011;5946;51.770;8.548;2023-06-22T13:03:57;23.33;;;20.67;;
11777;SDS011;5946;51.770;8.548;2023-06-22T13:06:24;28.15;;;25.25;;
11777;SDS011;5946;51.770;8.548;2023-06-22T13:08:50;32.08;;;26.88;;
11777;SDS011;5946;51.770;8.548;2023-06-22T13:11:15;29.23;;;24.45;;
11777;SDS011;5946;51.770;8.548;2023-06-22T13:13:43;29.67;;;25.83;;
11777;SDS011;5946;51.770;8.548;2023-06-22T13:16:09;28.90;;;25.83;;
11777;SDS011;5946;51.770;8.548;2023-06-22T13:18:35;32.47;;;27.20;;
11777;SDS011;5946;51.770;8.548;2023-06-22T13:21:04;30.65;;;27.45;;
11777;SDS011;5946;51.770;8.548;2023-06-22T13:23:30;31.33;;;28.15;;
11777;SDS011;5946;51.770;8.548;2023-06-22T13:25:57;31.70;;;27.05;;
11777;SDS011;5946;51.770;8.548;2023-06-22T13:28:23;37.53;;;26.85;;
11777;SDS011;5946;51.770;8.548;2023-06-22T13:30:49;34.95;;;27.20;;
11777;SDS011;5946;51.770;8.548;2023-06-22T13:33:15;32.47;;;28.17;;
11777;SDS011;5946;51.770;8.548;2023-06-22T13:35:41;35.67;;;31.42;;
11777;SDS011;5946;51.770;8.548;2023-06-22T13:38:07;33.28;;;29.55;;
11777;SDS011;5946;51.770;8.548;2023-06-22T13:40:34;35.05;;;28.92;;
11777;SDS011;5946;51.770;8.548;2023-06-22T13:43:00;36.47;;;30.05;;
11777;SDS011;5946;51.770;8.548;2023-06-22T13:45:26;30.27;;;27.17;;
11777;SDS011;5946;51.770;8.548;2023-06-22T13:47:52;38.40;;;31.70;;
11777;SDS011;5946;51.770;8.548;2023-06-22T13:50:18;39.57;;;30.83;;
11777;SDS011;5946;51.770;8.548;2023-06-22T13:52:44;32.80;;;29.23;;
11777;SDS011;5946;51.770;8.548;2023-06-22T13:55:10;37.90;;;31.77;;
11777;SDS011;5946;51.770;8.548;2023-06-22T13:57:36;43.57;;;33.60;;
11777;SDS011;5946;51.770;8.548;2023-06-22T14:00:03;42.63;;;34.03;;
11777;SDS011;5946;51.770;8.548;2023-06-22T14:02:33;44.37;;;34.93;;
11777;SDS011;5946;51.770;8.548;2023-06-22T14:04:59;36.77;;;32.40;;
11777;SDS011;5946;51.770;8.548;2023-06-22T14:07:25;43.17;;;34.37;;
11777;SDS011;5946;51.770;8.548;2023-06-22T14:09:51;41.07;;;33.53;;
11777;SDS011;5946;51.770;8.548;2023-06-22T14:12:17;40.57;;;33.53;;
11777;SDS011;5946;51.770;8.548;2023-06-22T14:14:43;38.80;;;34.07;;
11777;SDS011;5946;51.770;8.548;2023-06-22T14:17:09;43.50;;;36.13;;
11777;SDS011;5946;51.770;8.548;2023-06-22T14:19:35;42.80;;;35.07;;
11777;SDS011;5946;51.770;8.548;2023-06-22T14:22:02;46.67;;;35.70;;
11777;SDS011;5946;51.770;8.548;2023-06-22T14:24:28;46.83;;;37.63;;
11777;SDS011;5946;51.770;8.548;2023-06-22T14:26:54;48.00;;;36.93;;
11777;SDS011;5946;51.770;8.548;2023-06-22T14:29:20;50.20;;;39.50;;
11777;SDS011;5946;51.770;8.548;2023-06-22T14:31:48;48.97;;;36.87;;
11777;SDS011;5946;51.770;8.548;2023-06-22T14:34:14;41.97;;;34.47;;
11777;SDS011;5946;51.770;8.548;2023-06-22T14:36:40;41.17;;;34.20;;
11777;SDS011;5946;51.770;8.548;2023-06-22T14:39:07;41.17;;;34.63;;
11777;SDS011;5946;51.770;8.548;2023-06-22T14:41:32;34.90;;;30.83;;
11777;SDS011;5946;51.770;8.548;2023-06-22T14:43:58;36.73;;;32.77;;
11777;SDS011;5946;51.770;8.548;2023-06-22T14:46:24;37.30;;;31.77;;
11777;SDS011;5946;51.770;8.548;2023-06-22T14:48:50;34.97;;;28.77;;
11777;SDS011;5946;51.770;8.548;2023-06-22T14:51:16;34.77;;;29.50;;